sensor_id;sensor_type;location;lat;lon;timestamp;pressure;altitude;pressure_sealevel;temperature;humidity
64792;BME280;51226;47.504;19.074;2022-07-06T00:02:28;100094.56;;;20.59;66.56
64792;BME280;51226;47.504;19.074;2022-07-06T00:05:31;100101.53;;;20.72;66.02
64792;BME280;51226;47.504;19.074;2022-07-06T00:08:33;100096.19;;;20.78;65.76
64792;BME280;51226;47.504;19.074;2022-07-06T00:11:36;100091.75;;;20.82;65.63
64792;BME280;51226;47.504;19.074;2022-07-06T00:14:38;100094.47;;;20.72;65.87
64792;BME280;51226;47.504;19.074;2022-07-06T00:17:41;100091.63;;;20.92;65.00
64792;BME280;51226;47.504;19.074;2022-07-06T00:20:44;100089.81;;;20.99;64.66
64792;BME280;51226;47.504;19.074;2022-07-06T00:23:47;100087.28;;;20.88;64.96
64792;BME280;51226;47.504;19.074;2022-07-06T00:26:50;100084.69;;;20.79;65.24
64792;BME280;51226;47.504;19.074;2022-07-06T00:29:52;100083.88;;;20.71;65.51
64792;BME280;51226;47.504;19.074;2022-07-06T00:32:55;100082.06;;;20.76;65.22
64792;BME280;51226;47.504;19.074;2022-07-06T00:35:57;100094.47;;;20.71;65.33
64792;BME280;51226;47.504;19.074;2022-07-06T00:39:00;100095.53;;;20.45;66.33
64792;BME280;51226;47.504;19.074;2022-07-06T00:42:03;100096.38;;;20.53;65.95
64792;BME280;51226;47.504;19.074;2022-07-06T00:45:05;100094.59;;;20.49;66.18
64792;BME280;51226;47.504;19.074;2022-07-06T00:48:08;100102.53;;;20.52;66.17
64792;BME280;51226;47.504;19.074;2022-07-06T00:51:11;100097.34;;;20.42;66.35
64792;BME280;51226;47.504;19.074;2022-07-06T00:54:14;100099.13;;;20.36;66.69
64792;BME280;51226;47.504;19.074;2022-07-06T00:57:17;100094.63;;;20.48;65.95
64792;BME280;51226;47.504;19.074;2022-07-06T01:00:21;100087.66;;;20.33;66.81
64792;BME280;51226;47.504;19.074;2022-07-06T01:03:24;100085.06;;;20.25;67.12
64792;BME280;51226;47.504;19.074;2022-07-06T01:06:27;100071.88;;;20.17;67.46
64792;BME280;51226;47.504;19.074;2022-07-06T01:09:29;100068.25;;;20.31;66.95
64792;BME280;51226;47.504;19.074;2022-07-06T01:12:33;100075.31;;;20.30;66.95
64792;BME280;51226;47.504;19.074;2022-07-06T01:15:36;100071.81;;;20.27;67.08
64792;BME280;51226;47.504;19.074;2022-07-06T01:18:39;100078.81;;;20.37;66.78
64792;BME280;51226;47.504;19.074;2022-07-06T01:21:44;100090.22;;;20.50;66.13
64792;BME280;51226;47.504;19.074;2022-07-06T01:24:46;100086.75;;;20.39;66.43
64792;BME280;51226;47.504;19.074;2022-07-06T01:27:49;100079.69;;;20.37;66.31
64792;BME280;51226;47.504;19.074;2022-07-06T01:30:52;100085.88;;;20.36;66.53
64792;BME280;51226;47.504;19.074;2022-07-06T01:33:55;100089.31;;;20.49;65.99
64792;BME280;51226;47.504;19.074;2022-07-06T01:36:57;100089.41;;;20.39;66.40
64792;BME280;51226;47.504;19.074;2022-07-06T01:40:00;100085.75;;;20.53;65.77
64792;BME280;51226;47.504;19.074;2022-07-06T01:43:04;100092.03;;;20.45;66.01
64792;BME280;51226;47.504;19.074;2022-07-06T01:46:07;100084.00;;;20.52;65.58
64792;BME280;51226;47.504;19.074;2022-07-06T01:49:10;100097.31;;;20.43;65.92
64792;BME280;51226;47.504;19.074;2022-07-06T01:52:14;100091.09;;;20.47;65.42
64792;BME280;51226;47.504;19.074;2022-07-06T01:55:16;100087.59;;;20.42;65.51
64792;BME280;51226;47.504;19.074;2022-07-06T01:58:19;100094.69;;;20.42;65.56
64792;BME280;51226;47.504;19.074;2022-07-06T02:01:22;100091.22;;;20.32;65.81
64792;BME280;51226;47.504;19.074;2022-07-06T02:04:25;100092.91;;;20.42;65.38
64792;BME280;51226;47.504;19.074;2022-07-06T02:07:28;100080.72;;;20.16;66.24
64792;BME280;51226;47.504;19.074;2022-07-06T02:10:31;100084.25;;;20.15;66.38
64792;BME280;51226;47.504;19.074;2022-07-06T02:13:35;100080.75;;;20.09;66.41
64792;BME280;51226;47.504;19.074;2022-07-06T02:16:38;100089.41;;;20.35;65.24
64792;BME280;51226;47.504;19.074;2022-07-06T02:19:40;100092.94;;;20.33;65.43
64792;BME280;51226;47.504;19.074;2022-07-06T02:22:43;100106.09;;;20.51;64.61
64792;BME280;51226;47.504;19.074;2022-07-06T02:25:46;100107.06;;;20.38;65.03
64792;BME280;51226;47.504;19.074;2022-07-06T02:28:49;100106.28;;;20.22;65.62
64792;BME280;51226;47.504;19.074;2022-07-06T02:31:51;100101.81;;;20.32;65.25
64792;BME280;51226;47.504;19.074;2022-07-06T02:34:54;100107.94;;;20.40;64.85
64792;BME280;51226;47.504;19.074;2022-07-06T02:37:57;100113.22;;;20.42;64.75
64792;BME280;51226;47.504;19.074;2022-07-06T02:41:00;100113.28;;;20.28;65.38
64792;BME280;51226;47.504;19.074;2022-07-06T02:44:03;100118.66;;;20.17;65.79
64792;BME280;51226;47.504;19.074;2022-07-06T02:47:06;100123.13;;;20.09;66.06
64792;BME280;51226;47.504;19.074;2022-07-06T02:50:08;100118.66;;;20.17;65.75
64792;BME280;51226;47.504;19.074;2022-07-06T02:53:11;100116.91;;;20.14;65.79
64792;BME280;51226;47.504;19.074;2022-07-06T02:56:14;100123.09;;;20.16;65.88
64792;BME280;51226;47.504;19.074;2022-07-06T02:59:17;100131.06;;;20.06;66.15
64792;BME280;51226;47.504;19.074;2022-07-06T03:02:19;100136.34;;;20.10;66.02
64792;BME280;51226;47.504;19.074;2022-07-06T03:05:22;100142.37;;;20.37;64.93
64792;BME280;51226;47.504;19.074;2022-07-06T03:08:25;100146.75;;;20.41;64.74
64792;BME280;51226;47.504;19.074;2022-07-06T03:11:28;100139.00;;;20.12;65.84
64792;BME280;51226;47.504;19.074;2022-07-06T03:14:31;100145.19;;;20.06;66.16
64792;BME280;51226;47.504;19.074;2022-07-06T03:17:33;100152.19;;;20.20;65.75
64792;BME280;51226;47.504;19.074;2022-07-06T03:20:36;100146.88;;;20.23;65.52
64792;BME280;51226;47.504;19.074;2022-07-06T03:23:41;100148.72;;;20.10;66.11
64792;BME280;51226;47.504;19.074;2022-07-06T03:26:43;100146.03;;;20.16;65.87
64792;BME280;51226;47.504;19.074;2022-07-06T03:29:48;100151.31;;;20.17;65.84
64792;BME280;51226;47.504;19.074;2022-07-06T03:32:50;100153.09;;;20.15;65.84
64792;BME280;51226;47.504;19.074;2022-07-06T03:35:54;100158.41;;;20.06;66.14
64792;BME280;51226;47.504;19.074;2022-07-06T03:38:56;100161.81;;;20.33;65.07
64792;BME280;51226;47.504;19.074;2022-07-06T03:41:59;100164.50;;;20.31;65.16
64792;BME280;51226;47.504;19.074;2022-07-06T03:45:02;100157.44;;;20.27;65.25
64792;BME280;51226;47.504;19.074;2022-07-06T03:48:05;100164.41;;;20.47;64.62
64792;BME280;51226;47.504;19.074;2022-07-06T03:51:08;100163.56;;;20.43;64.95
64792;BME280;51226;47.504;19.074;2022-07-06T03:54:13;100159.09;;;20.50;64.49
64792;BME280;51226;47.504;19.074;2022-07-06T03:57:15;100163.47;;;20.52;64.29
64792;BME280;51226;47.504;19.074;2022-07-06T04:00:19;100153.72;;;20.61;63.94
64792;BME280;51226;47.504;19.074;2022-07-06T04:03:23;100166.09;;;20.59;64.00
64792;BME280;51226;47.504;19.074;2022-07-06T04:06:33;100164.41;;;20.48;64.49
64792;BME280;51226;47.504;19.074;2022-07-06T04:09:37;100164.22;;;20.79;63.48
64792;BME280;51226;47.504;19.074;2022-07-06T04:12:43;100157.91;;;20.92;62.83
64792;BME280;51226;47.504;19.074;2022-07-06T04:15:46;100161.91;;;21.40;61.56
64792;BME280;51226;47.504;19.074;2022-07-06T04:18:49;100157.19;;;21.70;60.26
64792;BME280;51226;47.504;19.074;2022-07-06T04:21:53;100157.19;;;21.70;59.85
64792;BME280;51226;47.504;19.074;2022-07-06T04:24:56;100161.00;;;21.49;60.78
64792;BME280;51226;47.504;19.074;2022-07-06T04:27:59;100156.53;;;21.52;60.31
64792;BME280;51226;47.504;19.074;2022-07-06T04:31:02;100159.25;;;21.41;60.77
64792;BME280;51226;47.504;19.074;2022-07-06T04:34:05;100151.25;;;21.44;60.22
64792;BME280;51226;47.504;19.074;2022-07-06T04:37:08;100155.75;;;21.35;60.64
64792;BME280;51226;47.504;19.074;2022-07-06T04:40:11;100158.56;;;21.19;61.31
64792;BME280;51226;47.504;19.074;2022-07-06T04:43:20;100158.53;;;21.24;61.36
64792;BME280;51226;47.504;19.074;2022-07-06T04:46:23;100153.25;;;21.22;61.29
64792;BME280;51226;47.504;19.074;2022-07-06T04:49:27;100172.72;;;21.18;61.10
64792;BME280;51226;47.504;19.074;2022-07-06T04:52:30;100166.50;;;21.25;61.00
64792;BME280;51226;47.504;19.074;2022-07-06T04:55:33;100173.50;;;21.28;60.97
64792;BME280;51226;47.504;19.074;2022-07-06T04:58:37;100177.06;;;21.30;61.13
64792;BME280;51226;47.504;19.074;2022-07-06T05:01:41;100177.75;;;21.51;60.13
64792;BME280;51226;47.504;19.074;2022-07-06T05:04:44;100175.13;;;21.49;60.31
64792;BME280;51226;47.504;19.074;2022-07-06T05:07:47;100174.97;;;21.61;59.82
64792;BME280;51226;47.504;19.074;2022-07-06T05:10:50;100180.31;;;21.58;60.10
64792;BME280;51226;47.504;19.074;2022-07-06T05:13:55;100180.09;;;21.78;59.46
64792;BME280;51226;47.504;19.074;2022-07-06T05:16:57;100170.28;;;21.85;59.29
64792;BME280;51226;47.504;19.074;2022-07-06T05:20:04;100159.63;;;21.88;59.29
64792;BME280;51226;47.504;19.074;2022-07-06T05:23:07;100184.41;;;21.90;59.19
64792;BME280;51226;47.504;19.074;2022-07-06T05:26:10;100189.34;;;22.21;57.79
64792;BME280;51226;47.504;19.074;2022-07-06T05:29:13;100191.84;;;22.33;57.38
64792;BME280;51226;47.504;19.074;2022-07-06T05:32:18;100187.41;;;22.37;57.40
64792;BME280;51226;47.504;19.074;2022-07-06T05:35:20;100187.44;;;22.34;57.34
64792;BME280;51226;47.504;19.074;2022-07-06T05:38:43;100184.62;;;22.43;57.48
64792;BME280;51226;47.504;19.074;2022-07-06T05:41:48;100180.22;;;22.44;57.56
64792;BME280;51226;47.504;19.074;2022-07-06T05:44:54;100194.00;;;22.70;56.47
64792;BME280;51226;47.504;19.074;2022-07-06T05:47:57;100200.84;;;22.85;56.02
64792;BME280;51226;47.504;19.074;2022-07-06T05:51:18;100201.75;;;22.86;55.93
64792;BME280;51226;47.504;19.074;2022-07-06T05:54:21;100201.50;;;23.01;55.37
64792;BME280;51226;47.504;19.074;2022-07-06T05:57:24;100210.22;;;23.12;54.86
64792;BME280;51226;47.504;19.074;2022-07-06T06:00:27;100218.75;;;23.33;54.05
64792;BME280;51226;47.504;19.074;2022-07-06T06:03:30;100227.78;;;23.24;54.75
64792;BME280;51226;47.504;19.074;2022-07-06T06:06:32;100230.16;;;23.40;53.98
64792;BME280;51226;47.504;19.074;2022-07-06T06:09:35;100239.00;;;23.42;54.17
64792;BME280;51226;47.504;19.074;2022-07-06T06:12:38;100234.53;;;23.44;54.12
64792;BME280;51226;47.504;19.074;2022-07-06T06:15:41;100236.16;;;23.53;54.11
64792;BME280;51226;47.504;19.074;2022-07-06T06:18:44;100226.03;;;23.72;53.73
64792;BME280;51226;47.504;19.074;2022-07-06T06:21:47;100232.63;;;24.00;52.56
64792;BME280;51226;47.504;19.074;2022-07-06T06:24:49;100234.97;;;24.17;51.68
64792;BME280;51226;47.504;19.074;2022-07-06T06:27:52;100231.03;;;24.34;51.39
64792;BME280;51226;47.504;19.074;2022-07-06T06:30:54;100220.69;;;24.62;50.64
64792;BME280;51226;47.504;19.074;2022-07-06T06:33:57;100227.25;;;24.86;49.89
64792;BME280;51226;47.504;19.074;2022-07-06T06:36:59;100226.53;;;25.15;48.90
64792;BME280;51226;47.504;19.074;2022-07-06T06:40:03;100218.47;;;25.19;48.73
64792;BME280;51226;47.504;19.074;2022-07-06T06:43:05;100231.75;;;25.22;48.24
64792;BME280;51226;47.504;19.074;2022-07-06T06:46:10;100233.31;;;25.30;48.23
64792;BME280;51226;47.504;19.074;2022-07-06T06:49:12;100236.22;;;25.56;47.11
64792;BME280;51226;47.504;19.074;2022-07-06T06:52:16;100244.06;;;25.63;46.96
64792;BME280;51226;47.504;19.074;2022-07-06T06:55:38;100248.97;;;25.79;47.15
64792;BME280;51226;47.504;19.074;2022-07-06T06:58:42;100247.91;;;26.19;45.49
64792;BME280;51226;47.504;19.074;2022-07-06T07:02:04;100241.66;;;26.50;44.76
64792;BME280;51226;47.504;19.074;2022-07-06T07:05:07;100244.44;;;26.47;45.38
64792;BME280;51226;47.504;19.074;2022-07-06T07:08:09;100249.81;;;26.76;44.85
64792;BME280;51226;47.504;19.074;2022-07-06T07:11:12;100238.97;;;27.08;43.75
64792;BME280;51226;47.504;19.074;2022-07-06T07:14:14;100248.03;;;27.32;43.24
64792;BME280;51226;47.504;19.074;2022-07-06T07:17:17;100258.59;;;27.63;42.57
64792;BME280;51226;47.504;19.074;2022-07-06T07:20:20;100258.69;;;27.85;42.17
64792;BME280;51226;47.504;19.074;2022-07-06T07:23:23;100246.59;;;28.00;42.06
64792;BME280;51226;47.504;19.074;2022-07-06T07:26:25;100244.16;;;28.18;41.18
64792;BME280;51226;47.504;19.074;2022-07-06T07:29:28;100250.16;;;28.24;41.21
64792;BME280;51226;47.504;19.074;2022-07-06T07:32:30;100254.75;;;28.44;40.67
64792;BME280;51226;47.504;19.074;2022-07-06T07:35:33;100258.41;;;28.67;40.39
64792;BME280;51226;47.504;19.074;2022-07-06T07:38:35;100262.16;;;28.85;39.83
64792;BME280;51226;47.504;19.074;2022-07-06T07:41:38;100267.28;;;28.91;39.16
64792;BME280;51226;47.504;19.074;2022-07-06T07:44:41;100259.97;;;28.95;39.25
64792;BME280;51226;47.504;19.074;2022-07-06T07:47:44;100265.56;;;29.12;39.56
64792;BME280;51226;47.504;19.074;2022-07-06T07:50:46;100269.81;;;29.40;38.67
64792;BME280;51226;47.504;19.074;2022-07-06T07:53:49;100267.25;;;29.80;38.07
64792;BME280;51226;47.504;19.074;2022-07-06T07:56:51;100271.00;;;30.17;36.48
64792;BME280;51226;47.504;19.074;2022-07-06T07:59:54;100261.28;;;30.33;36.46
64792;BME280;51226;47.504;19.074;2022-07-06T08:02:56;100257.91;;;30.48;36.04
64792;BME280;51226;47.504;19.074;2022-07-06T08:05:59;100263.44;;;30.64;35.95
64792;BME280;51226;47.504;19.074;2022-07-06T08:09:02;100258.00;;;31.04;34.96
64792;BME280;51226;47.504;19.074;2022-07-06T08:12:06;100260.69;;;31.21;34.47
64792;BME280;51226;47.504;19.074;2022-07-06T08:15:09;100262.31;;;31.43;34.48
64792;BME280;51226;47.504;19.074;2022-07-06T08:18:12;100259.91;;;31.73;33.50
64792;BME280;51226;47.504;19.074;2022-07-06T08:21:14;100268.84;;;32.09;32.76
64792;BME280;51226;47.504;19.074;2022-07-06T08:24:27;100269.44;;;32.47;32.19
64792;BME280;51226;47.504;19.074;2022-07-06T08:27:29;100269.59;;;33.10;30.65
64792;BME280;51226;47.504;19.074;2022-07-06T08:30:32;100268.31;;;33.63;29.98
64792;BME280;51226;47.504;19.074;2022-07-06T08:33:36;100281.63;;;33.96;29.57
64792;BME280;51226;47.504;19.074;2022-07-06T08:36:39;100282.53;;;34.69;27.88
64792;BME280;51226;47.504;19.074;2022-07-06T08:39:42;100280.19;;;34.05;28.90
64792;BME280;51226;47.504;19.074;2022-07-06T08:42:45;100278.25;;;33.16;29.57
64792;BME280;51226;47.504;19.074;2022-07-06T08:45:50;100276.56;;;32.32;30.86
64792;BME280;51226;47.504;19.074;2022-07-06T08:48:57;100277.63;;;32.46;31.05
64792;BME280;51226;47.504;19.074;2022-07-06T08:52:00;100280.06;;;33.32;29.59
64792;BME280;51226;47.504;19.074;2022-07-06T08:55:03;100273.00;;;33.13;29.37
64792;BME280;51226;47.504;19.074;2022-07-06T08:58:06;100270.53;;;33.40;29.38
64792;BME280;51226;47.504;19.074;2022-07-06T09:01:09;100278.09;;;34.25;28.06
64792;BME280;51226;47.504;19.074;2022-07-06T09:04:13;100272.25;;;34.02;28.03
64792;BME280;51226;47.504;19.074;2022-07-06T09:07:18;100273.22;;;33.40;29.19
64792;BME280;51226;47.504;19.074;2022-07-06T09:10:41;100275.28;;;34.26;27.95
64792;BME280;51226;47.504;19.074;2022-07-06T09:13:44;100270.06;;;35.22;26.50
64792;BME280;51226;47.504;19.074;2022-07-06T09:16:49;100279.84;;;35.38;26.10
64792;BME280;51226;47.504;19.074;2022-07-06T09:19:54;100265.66;;;36.13;24.90
64792;BME280;51226;47.504;19.074;2022-07-06T09:23:00;100274.13;;;36.72;24.21
64792;BME280;51226;47.504;19.074;2022-07-06T09:26:05;100263.94;;;37.24;23.55
64792;BME280;51226;47.504;19.074;2022-07-06T09:29:07;100268.03;;;38.01;23.39
64792;BME280;51226;47.504;19.074;2022-07-06T09:32:10;100258.66;;;38.73;21.76
64792;BME280;51226;47.504;19.074;2022-07-06T09:35:19;100255.00;;;39.39;21.33
64792;BME280;51226;47.504;19.074;2022-07-06T09:38:22;100247.31;;;39.86;20.01
64792;BME280;51226;47.504;19.074;2022-07-06T09:41:30;100251.50;;;39.69;21.04
64792;BME280;51226;47.504;19.074;2022-07-06T09:44:35;100254.13;;;40.23;19.44
64792;BME280;51226;47.504;19.074;2022-07-06T09:47:39;100263.94;;;40.56;19.27
64792;BME280;51226;47.504;19.074;2022-07-06T09:50:46;100259.38;;;39.83;19.70
64792;BME280;51226;47.504;19.074;2022-07-06T09:53:50;100253.59;;;40.29;19.07
64792;BME280;51226;47.504;19.074;2022-07-06T09:56:54;100249.22;;;40.88;18.25
64792;BME280;51226;47.504;19.074;2022-07-06T09:59:57;100262.25;;;40.34;18.69
64792;BME280;51226;47.504;19.074;2022-07-06T10:03:01;100263.34;;;40.83;18.04
64792;BME280;51226;47.504;19.074;2022-07-06T10:06:04;100256.63;;;41.17;17.55
64792;BME280;51226;47.504;19.074;2022-07-06T10:09:07;100247.69;;;41.34;17.22
64792;BME280;51226;47.504;19.074;2022-07-06T10:12:15;100252.41;;;41.61;17.19
64792;BME280;51226;47.504;19.074;2022-07-06T10:15:20;100259.22;;;41.67;17.11
64792;BME280;51226;47.504;19.074;2022-07-06T10:18:23;100250.75;;;42.08;16.34
64792;BME280;51226;47.504;19.074;2022-07-06T10:21:27;100254.84;;;41.94;16.52
64792;BME280;51226;47.504;19.074;2022-07-06T10:24:29;100248.97;;;41.59;16.83
64792;BME280;51226;47.504;19.074;2022-07-06T10:27:33;100240.94;;;42.05;16.04
64792;BME280;51226;47.504;19.074;2022-07-06T10:30:37;100249.09;;;42.34;15.83
64792;BME280;51226;47.504;19.074;2022-07-06T10:33:40;100245.31;;;42.73;14.86
64792;BME280;51226;47.504;19.074;2022-07-06T10:36:43;100255.62;;;43.07;14.89
64792;BME280;51226;47.504;19.074;2022-07-06T10:39:46;100240.97;;;43.52;14.51
64792;BME280;51226;47.504;19.074;2022-07-06T10:43:08;100249.84;;;43.28;14.22
64792;BME280;51226;47.504;19.074;2022-07-06T10:46:12;100255.16;;;43.11;13.71
64792;BME280;51226;47.504;19.074;2022-07-06T10:49:16;100246.34;;;41.97;14.68
64792;BME280;51226;47.504;19.074;2022-07-06T10:52:52;100261.16;;;42.04;14.82
64792;BME280;51226;47.504;19.074;2022-07-06T10:55:55;100257.09;;;42.18;14.88
64792;BME280;51226;47.504;19.074;2022-07-06T10:59:01;100258.72;;;42.76;14.39
64792;BME280;51226;47.504;19.074;2022-07-06T11:02:11;100254.31;;;41.80;15.31
64792;BME280;51226;47.504;19.074;2022-07-06T11:08:56;100255.53;;;42.53;13.86
64792;BME280;51226;47.504;19.074;2022-07-06T11:12:11;100244.22;;;41.81;14.38
64792;BME280;51226;47.504;19.074;2022-07-06T11:15:40;100238.69;;;42.10;14.69
64792;BME280;51226;47.504;19.074;2022-07-06T11:18:38;100232.97;;;41.64;14.68
64792;BME280;51226;47.504;19.074;2022-07-06T11:24:47;100239.00;;;41.88;14.12
64792;BME280;51226;47.504;19.074;2022-07-06T11:27:52;100235.62;;;42.41;13.18
64792;BME280;51226;47.504;19.074;2022-07-06T11:30:55;100236.84;;;41.81;13.81
64792;BME280;51226;47.504;19.074;2022-07-06T11:33:58;100233.69;;;40.88;14.46
64792;BME280;51226;47.504;19.074;2022-07-06T11:37:01;100237.03;;;40.20;15.24
64792;BME280;51226;47.504;19.074;2022-07-06T11:40:07;100222.84;;;40.77;14.62
64792;BME280;51226;47.504;19.074;2022-07-06T11:43:10;100237.59;;;41.35;14.12
64792;BME280;51226;47.504;19.074;2022-07-06T11:46:20;100229.94;;;40.99;14.51
64792;BME280;51226;47.504;19.074;2022-07-06T11:49:23;100232.28;;;41.33;13.84
64792;BME280;51226;47.504;19.074;2022-07-06T11:52:26;100232.53;;;41.59;13.49
64792;BME280;51226;47.504;19.074;2022-07-06T11:55:29;100240.59;;;41.61;13.84
64792;BME280;51226;47.504;19.074;2022-07-06T11:58:31;100236.84;;;41.72;13.13
64792;BME280;51226;47.504;19.074;2022-07-06T12:01:35;100230.53;;;41.71;13.12
64792;BME280;51226;47.504;19.074;2022-07-06T12:04:44;100225.94;;;41.42;13.55
64792;BME280;51226;47.504;19.074;2022-07-06T12:07:47;100239.91;;;41.69;13.16
64792;BME280;51226;47.504;19.074;2022-07-06T12:10:50;100238.72;;;41.52;13.56
64792;BME280;51226;47.504;19.074;2022-07-06T12:13:53;100236.00;;;41.71;13.57
64792;BME280;51226;47.504;19.074;2022-07-06T12:17:00;100238.88;;;41.60;13.59
64792;BME280;51226;47.504;19.074;2022-07-06T12:20:04;100240.31;;;41.64;13.46
64792;BME280;51226;47.504;19.074;2022-07-06T12:23:07;100233.41;;;40.51;14.07
64792;BME280;51226;47.504;19.074;2022-07-06T12:26:10;100232.75;;;39.22;15.09
64792;BME280;51226;47.504;19.074;2022-07-06T12:29:13;100229.28;;;39.20;15.74
64792;BME280;51226;47.504;19.074;2022-07-06T12:32:19;100233.75;;;39.75;15.29
64792;BME280;51226;47.504;19.074;2022-07-06T12:35:24;100229.78;;;39.89;15.31
64792;BME280;51226;47.504;19.074;2022-07-06T12:38:27;100223.87;;;39.83;15.34
64792;BME280;51226;47.504;19.074;2022-07-06T12:41:31;100232.84;;;39.74;15.01
64792;BME280;51226;47.504;19.074;2022-07-06T12:44:41;100237.84;;;39.90;14.80
64792;BME280;51226;47.504;19.074;2022-07-06T12:47:56;100229.41;;;39.51;14.96
64792;BME280;51226;47.504;19.074;2022-07-06T12:51:01;100227.44;;;39.42;14.92
64792;BME280;51226;47.504;19.074;2022-07-06T12:54:13;100224.03;;;39.28;14.40
64792;BME280;51226;47.504;19.074;2022-07-06T12:57:20;100226.63;;;39.30;14.17
64792;BME280;51226;47.504;19.074;2022-07-06T13:00:25;100210.41;;;38.85;14.58
64792;BME280;51226;47.504;19.074;2022-07-06T13:03:28;100215.22;;;38.92;14.40
64792;BME280;51226;47.504;19.074;2022-07-06T13:06:41;100214.44;;;39.02;14.44
64792;BME280;51226;47.504;19.074;2022-07-06T13:09:43;100222.28;;;39.06;14.54
64792;BME280;51226;47.504;19.074;2022-07-06T13:12:46;100224.66;;;38.88;14.60
64792;BME280;51226;47.504;19.074;2022-07-06T13:15:48;100225.62;;;38.87;14.95
64792;BME280;51226;47.504;19.074;2022-07-06T13:18:52;100227.37;;;37.75;15.46
64792;BME280;51226;47.504;19.074;2022-07-06T13:21:55;100230.81;;;37.06;15.87
64792;BME280;51226;47.504;19.074;2022-07-06T13:24:57;100218.00;;;36.71;16.17
64792;BME280;51226;47.504;19.074;2022-07-06T13:28:00;100217.56;;;36.65;15.96
64792;BME280;51226;47.504;19.074;2022-07-06T13:31:02;100235.44;;;36.43;16.72
64792;BME280;51226;47.504;19.074;2022-07-06T13:34:13;100232.22;;;36.25;16.78
64792;BME280;51226;47.504;19.074;2022-07-06T13:37:17;100228.53;;;36.26;16.56
64792;BME280;51226;47.504;19.074;2022-07-06T13:40:23;100235.03;;;35.85;17.90
64792;BME280;51226;47.504;19.074;2022-07-06T13:43:25;100229.81;;;36.08;18.34
64792;BME280;51226;47.504;19.074;2022-07-06T13:46:29;100222.12;;;35.89;19.13
64792;BME280;51226;47.504;19.074;2022-07-06T13:49:32;100224.84;;;35.89;19.45
64792;BME280;51226;47.504;19.074;2022-07-06T13:52:35;100219.94;;;35.81;19.75
64792;BME280;51226;47.504;19.074;2022-07-06T13:55:37;100232.06;;;35.62;19.57
64792;BME280;51226;47.504;19.074;2022-07-06T13:58:40;100228.88;;;35.43;19.70
64792;BME280;51226;47.504;19.074;2022-07-06T14:01:42;100229.53;;;35.34;19.72
64792;BME280;51226;47.504;19.074;2022-07-06T14:04:45;100228.72;;;35.04;20.03
64792;BME280;51226;47.504;19.074;2022-07-06T14:07:48;100225.19;;;34.89;20.33
64792;BME280;51226;47.504;19.074;2022-07-06T14:10:50;100235.00;;;34.92;20.23
64792;BME280;51226;47.504;19.074;2022-07-06T14:13:53;100233.75;;;34.69;20.42
64792;BME280;51226;47.504;19.074;2022-07-06T14:16:55;100226.44;;;34.42;20.72
64792;BME280;51226;47.504;19.074;2022-07-06T14:19:58;100233.78;;;34.11;20.95
64792;BME280;51226;47.504;19.074;2022-07-06T14:23:01;100235.59;;;33.82;21.46
64792;BME280;51226;47.504;19.074;2022-07-06T14:26:03;100236.38;;;33.70;22.22
64792;BME280;51226;47.504;19.074;2022-07-06T14:29:06;100230.00;;;33.85;21.35
64792;BME280;51226;47.504;19.074;2022-07-06T14:32:08;100224.00;;;33.80;21.53
64792;BME280;51226;47.504;19.074;2022-07-06T14:35:11;100236.28;;;33.55;21.93
64792;BME280;51226;47.504;19.074;2022-07-06T14:38:14;100229.94;;;33.56;21.06
64792;BME280;51226;47.504;19.074;2022-07-06T14:41:17;100235.09;;;33.45;21.45
64792;BME280;51226;47.504;19.074;2022-07-06T14:44:20;100226.31;;;33.41;21.29
64792;BME280;51226;47.504;19.074;2022-07-06T14:47:22;100226.81;;;32.86;21.76
64792;BME280;51226;47.504;19.074;2022-07-06T14:50:25;100220.72;;;32.66;21.45
64792;BME280;51226;47.504;19.074;2022-07-06T14:53:28;100233.50;;;32.47;21.01
64792;BME280;51226;47.504;19.074;2022-07-06T14:56:31;100240.19;;;32.40;21.28
64792;BME280;51226;47.504;19.074;2022-07-06T14:59:34;100228.69;;;32.36;21.80
64792;BME280;51226;47.504;19.074;2022-07-06T15:02:37;100223.19;;;32.38;21.16
64792;BME280;51226;47.504;19.074;2022-07-06T15:05:40;100220.16;;;32.28;21.29
64792;BME280;51226;47.504;19.074;2022-07-06T15:08:42;100224.38;;;31.99;21.49
64792;BME280;51226;47.504;19.074;2022-07-06T15:11:45;100233.72;;;31.75;21.52
64792;BME280;51226;47.504;19.074;2022-07-06T15:14:47;100235.59;;;31.38;21.62
64792;BME280;51226;47.504;19.074;2022-07-06T15:17:50;100234.69;;;31.20;21.83
64792;BME280;51226;47.504;19.074;2022-07-06T15:20:52;100239.84;;;31.08;22.02
64792;BME280;51226;47.504;19.074;2022-07-06T15:23:55;100232.00;;;31.03;21.81
64792;BME280;51226;47.504;19.074;2022-07-06T15:26:57;100238.47;;;30.80;22.04
64792;BME280;51226;47.504;19.074;2022-07-06T15:30:00;100240.59;;;30.73;21.84
64792;BME280;51226;47.504;19.074;2022-07-06T15:33:23;100239.78;;;30.71;21.92
64792;BME280;51226;47.504;19.074;2022-07-06T15:36:26;100229.44;;;30.62;21.80
64792;BME280;51226;47.504;19.074;2022-07-06T15:39:29;100237.69;;;30.40;23.01
64792;BME280;51226;47.504;19.074;2022-07-06T15:42:31;100246.69;;;30.39;22.69
64792;BME280;51226;47.504;19.074;2022-07-06T15:45:34;100244.13;;;30.36;22.40
64792;BME280;51226;47.504;19.074;2022-07-06T15:48:37;100245.56;;;30.24;22.57
64792;BME280;51226;47.504;19.074;2022-07-06T15:51:40;100241.47;;;30.15;22.67
64792;BME280;51226;47.504;19.074;2022-07-06T15:54:42;100248.28;;;30.03;22.88
64792;BME280;51226;47.504;19.074;2022-07-06T15:57:45;100248.72;;;29.94;23.13